This is the latest recevied weather packets stored in our database for station/object HS5XHC-1. If no packets are shown the sender has not sent any weather packets the latest 10 day(s).
| Time | Temp. | Humidity | Pressure | Rain* | Wind** | Luminosity | Snow |
|---|---|---|---|---|---|---|---|
| 1778035088 | 27.78° C | 57% | 968 hPa | - | - | 0 W/m² | - |
| 1778034464 | 27.78° C | 57% | 968 hPa | - | - | 0 W/m² | - |
| 1778033841 | 27.22° C | 57% | 968 hPa | - | - | 0 W/m² | - |
| 1778033217 | 27.22° C | 58% | 968 hPa | - | - | 0 W/m² | - |
| 1778032593 | 27.22° C | 59% | 968 hPa | - | - | 0 W/m² | - |
| 1778031969 | 26.67° C | 60% | 968 hPa | - | - | 0 W/m² | - |
| 1778031344 | 27.78° C | 56% | 968 hPa | - | - | 0 W/m² | - |
| 1778030720 | 26.67° C | 57% | 968 hPa | - | - | 0 W/m² | - |
| 1778030096 | 27.22° C | 57% | 968 hPa | - | - | 0 W/m² | - |
| 1778029473 | 27.22° C | 56% | 968 hPa | - | - | 0 W/m² | - |
| 1778028849 | 27.78° C | 56% | 968 hPa | - | - | 0 W/m² | - |
| 1778028224 | 27.22° C | 56% | 968 hPa | - | - | 0 W/m² | - |
| 1778027600 | 26.67° C | 57% | 968 hPa | - | - | 0 W/m² | - |
| 1778026976 | 27.22° C | 56% | 968 hPa | - | - | 0 W/m² | - |
| 1778026353 | 26.67° C | 57% | 968 hPa | - | - | 0 W/m² | - |
| 1778025729 | 26.11° C | 58% | 968 hPa | - | - | 0 W/m² | - |
| 1778025104 | 27.22° C | 55% | 968 hPa | - | - | 0 W/m² | - |
| 1778024481 | 27.22° C | 55% | 968 hPa | - | - | 0 W/m² | - |
| 1778023857 | 26.67° C | 57% | 968 hPa | - | - | 0 W/m² | - |
| 1778023233 | 27.22° C | 54% | 968 hPa | - | - | 0 W/m² | - |
| 1778022609 | 27.22° C | 55% | 968 hPa | - | - | 0 W/m² | - |
| 1778021985 | 27.22° C | 55% | 967 hPa | - | - | 0 W/m² | - |
| 1778021361 | 26.67° C | 56% | 967 hPa | - | - | 0 W/m² | - |
| 1778020737 | 27.22° C | 55% | 967 hPa | - | - | 0 W/m² | - |
| 1778020113 | 27.22° C | 56% | 967 hPa | - | - | 0 W/m² | - |
* Rain since midnight (hover to see other rain measurements)
** Current wind speed in m/s (hover to see current wind gust speed)